Time;durP1;ratioP1;P1;durP2;ratioP2;P2;SDS_P1;SDS_P2;PMS_P1;PMS_P2;Temp;Humidity;BMP_temperature;BMP_pressure;BME280_temperature;BME280_humidity;BME280_pressure;Samples;Min_cycle;Max_cycle;Signal;HPM_P1;HPM_P2
2021/11/08 00:00:05;;;;;;;8.27;5.38;;;;;;;10.36;93.57;98558.91;5129716;27;20420;-95
2021/11/08 00:02:33;;;;;;;11.63;5.72;;;;;;;10.43;93.38;98557.81;5128113;28;20542;-95
2021/11/08 00:05:00;;;;;;;7.82;5.22;;;;;;;10.43;92.95;98549.84;5120431;28;20113;-95
2021/11/08 00:07:27;;;;;;;9.48;5.25;;;;;;;10.60;91.80;98557.31;5133333;28;20089;-93
2021/11/08 00:09:53;;;;;;;9.40;5.43;;;;;;;10.71;92.12;98546.34;5124686;28;20520;-95
2021/11/08 00:12:23;;;;;;;8.20;5.15;;;;;;;10.68;91.58;98534.88;5125205;28;20036;-94
2021/11/08 00:14:55;;;;;;;8.32;5.22;;;;;;;10.69;91.28;98531.31;5119166;28;20044;-95
2021/11/08 00:20:28;;;;;;;8.48;5.15;;;;;;;10.69;91.33;98541.97;5114512;27;20357;-94
2021/11/08 00:22:55;;;;;;;9.43;5.28;;;;;;;10.82;90.85;98557.50;5117488;28;20039;-94
2021/11/08 00:25:23;;;;;;;9.77;5.22;;;;;;;10.60;91.31;98531.56;5115686;28;20048;-93
2021/11/08 00:27:51;;;;;;;8.40;5.03;;;;;;;10.71;91.21;98541.03;5113082;28;20443;-95
2021/11/08 00:30:17;;;;;;;11.88;5.72;;;;;;;10.60;91.49;98525.41;5118598;27;20496;-94
2021/11/08 00:32:43;;;;;;;9.90;5.38;;;;;;;10.63;92.03;98541.28;5113990;28;20535;-95
2021/11/08 00:35:09;;;;;;;12.13;5.97;;;;;;;10.71;91.49;98541.03;5114535;28;20048;-95
2021/11/08 00:37:37;;;;;;;12.45;6.40;;;;;;;10.57;92.38;98538.81;5115366;27;20036;-93
2021/11/08 00:40:06;;;;;;;11.57;5.90;;;;;;;10.45;93.26;98527.63;5114633;28;20040;-95
2021/11/08 00:42:32;;;;;;;10.40;6.03;;;;;;;10.32;93.87;98523.56;5113358;28;20405;-94
2021/11/08 00:44:58;;;;;;;11.55;6.68;;;;;;;10.37;93.81;98537.63;5114333;28;20504;-96
2021/11/08 00:47:25;;;;;;;10.63;6.28;;;;;;;10.54;93.74;98562.81;5114355;28;20036;-94
2021/11/08 00:49:52;;;;;;;9.13;5.82;;;;;;;10.53;93.31;98537.16;5114425;28;20036;-95
2021/11/08 00:52:19;;;;;;;9.15;5.53;;;;;;;10.65;92.85;98545.63;5109809;28;20052;-95
2021/11/08 00:54:47;;;;;;;11.30;5.47;;;;;;;10.62;92.55;98520.91;5113532;28;20071;-95
2021/11/08 00:57:18;;;;;;;9.18;5.50;;;;;;;10.68;92.43;98526.91;5113849;28;20036;-95
2021/11/08 00:59:44;;;;;;;9.38;4.85;;;;;;;10.63;92.27;98520.00;5111559;28;20378;-94
2021/11/08 01:02:12;;;;;;;9.48;5.80;;;;;;;10.69;92.98;98541.97;5113021;28;20048;-94
2021/11/08 01:04:38;;;;;;;7.93;5.10;;;;;;;10.42;94.02;98514.41;5113049;28;20039;-95
2021/11/08 01:07:05;;;;;;;8.95;5.07;;;;;;;10.36;94.63;98500.44;5114240;28;20130;-95
2021/11/08 01:09:32;;;;;;;9.63;5.28;;;;;;;10.40;94.75;98524.22;5113899;28;20039;-94
2021/11/08 01:12:00;;;;;;;13.85;5.57;;;;;;;10.46;94.88;98544.44;5114491;28;20064;-94
2021/11/08 01:14:27;;;;;;;10.82;5.53;;;;;;;10.42;95.48;98527.72;5114264;28;20047;-94
2021/11/08 01:16:56;;;;;;;10.20;6.28;;;;;;;10.41;96.33;98536.63;5113660;28;20044;-96
2021/11/08 01:19:25;;;;;;;12.15;6.55;;;;;;;10.53;96.27;98545.13;5113847;28;20040;-95
2021/11/08 01:21:52;;;;;;;10.40;5.88;;;;;;;10.45;95.76;98532.94;5113756;28;20032;-96
2021/11/08 01:24:18;;;;;;;11.27;6.30;;;;;;;10.45;95.55;98535.59;5113666;28;20047;-95
2021/11/08 01:26:47;;;;;;;11.65;6.13;;;;;;;10.28;95.76;98508.63;5114996;28;20044;-95
2021/11/08 01:29:14;;;;;;;11.63;6.72;;;;;;;10.35;96.42;98530.63;5112576;28;20064;-94
2021/11/08 01:31:41;;;;;;;14.80;6.57;;;;;;;10.31;96.53;98529.81;5098591;28;20036;-95
2021/11/08 01:34:07;;;;;;;14.07;7.55;;;;;;;10.14;97.26;98510.81;5098061;28;20058;-94
2021/11/08 01:36:36;;;;;;;12.18;6.45;;;;;;;10.24;97.11;98546.84;5098845;28;20044;-93
2021/11/08 01:42:08;;;;;;;13.00;7.00;;;;;;;10.02;97.05;98512.94;5075798;27;20410;-96
2021/11/08 01:44:34;;;;;;;9.55;5.97;;;;;;;10.02;97.14;98518.25;5074578;28;20124;-94
2021/11/08 01:47:01;;;;;;;10.23;5.80;;;;;;;10.03;96.70;98509.34;5073555;28;20068;-95
2021/11/08 01:49:28;;;;;;;9.52;6.00;;;;;;;10.15;97.07;98547.09;5073819;28;20409;-94
2021/11/08 01:51:55;;;;;;;11.65;6.28;;;;;;;10.15;96.84;98544.44;5073397;28;20047;-94
2021/11/08 01:54:23;;;;;;;11.52;6.63;;;;;;;10.07;96.76;98523.41;5071727;28;20490;-96
2021/11/08 01:56:51;;;;;;;11.38;6.50;;;;;;;9.97;97.32;98520.13;5073274;28;20083;-94
2021/11/08 01:59:19;;;;;;;13.02;6.75;;;;;;;9.87;97.61;98516.88;5072667;28;20040;-95
2021/11/08 02:01:46;;;;;;;9.75;6.10;;;;;;;9.99;97.73;98544.88;5072923;28;20075;-94
2021/11/08 02:04:12;;;;;;;13.07;6.82;;;;;;;9.86;97.69;98527.53;5073939;28;20040;-94
2021/11/08 02:06:38;;;;;;;12.73;7.40;;;;;;;9.97;97.90;98540.53;5072224;28;20087;-94
2021/11/08 02:09:04;;;;;;;12.63;7.40;;;;;;;9.82;98.70;98523.22;5072630;28;20040;-95
2021/11/08 02:11:31;;;;;;;12.82;7.28;;;;;;;9.76;98.86;98512.78;5072394;28;20033;-95
2021/11/08 02:13:57;;;;;;;13.65;7.28;;;;;;;9.76;98.82;98521.63;5071790;28;20063;-94
2021/11/08 02:16:24;;;;;;;13.32;7.35;;;;;;;9.71;99.31;98509.38;5071922;28;20548;-93
2021/11/08 02:18:51;;;;;;;13.90;7.72;;;;;;;9.74;98.93;98511.97;5071332;28;20050;-96
2021/11/08 02:21:19;;;;;;;15.43;7.90;;;;;;;9.69;99.23;98498.78;5073976;28;20037;-95
2021/11/08 02:23:48;;;;;;;13.57;8.10;;;;;;;9.73;99.53;98504.91;5072863;28;20037;-95
2021/11/08 02:26:17;;;;;;;13.57;7.05;;;;;;;9.74;99.53;98510.19;5073395;28;20445;-96
2021/11/08 02:28:44;;;;;;;;;;;;;;;9.76;99.82;98523.38;5074367;28;20102;-95
2021/11/08 02:31:14;;;;;;;14.75;7.38;;;;;;;9.58;99.82;98501.75;5073332;28;20453;-94
2021/11/08 02:33:41;;;;;;;21.08;7.95;;;;;;;9.52;100.00;98493.09;5072784;28;20037;-95
2021/11/08 02:36:07;;;;;;;13.45;8.05;;;;;;;9.52;100.00;98503.69;5071744;28;20112;-95
2021/11/08 02:38:41;;;;;;;12.02;7.80;;;;;;;9.37;100.00;98483.78;5072164;28;20049;-95
2021/11/08 02:41:08;;;;;;;12.45;7.30;;;;;;;9.32;100.00;98472.41;5071725;28;20099;-95
2021/11/08 02:43:35;;;;;;;14.75;7.35;;;;;;;9.40;100.00;98503.13;5071683;28;20037;-94
2021/11/08 02:49:06;;;;;;;12.63;7.03;;;;;;;9.38;100.00;98501.44;5133449;27;20360;-95
2021/11/08 02:51:32;;;;;;;;;;;;;;;9.51;100.00;98508.16;5134216;27;20051;-94
2021/11/08 02:54:05;;;;;;;14.82;7.97;;;;;;;9.38;100.00;98472.25;5133985;27;19969;-96
2021/11/08 02:56:32;;;;;;;12.70;7.35;;;;;;;9.39;100.00;98466.91;5134040;27;20115;-93
2021/11/08 02:58:58;;;;;;;16.67;8.35;;;;;;;9.50;100.00;98485.19;5132993;27;20034;-94
2021/11/08 03:01:28;;;;;;;15.50;7.85;;;;;;;9.51;100.00;98491.34;5133231;28;20560;-95
2021/11/08 03:03:56;;;;;;;14.60;7.93;;;;;;;9.43;100.00;98468.56;5132721;27;20112;-94
2021/11/08 03:09:30;;;;;;;15.50;8.73;;;;;;;9.39;100.00;98488.13;5125812;27;20381;-95
2021/11/08 03:11:58;;;;;;;13.20;8.18;;;;;;;9.44;100.00;98502.13;5121962;28;20048;-93
2021/11/08 03:14:27;;;;;;;15.85;8.57;;;;;;;9.24;100.00;98457.56;5118494;28;20114;-95
2021/11/08 03:16:57;;;;;;;15.32;8.13;;;;;;;9.36;100.00;98493.50;5113077;28;20044;-93
2021/11/08 03:22:31;;;;;;;18.63;8.80;;;;;;;9.35;100.00;98480.28;5121208;27;20173;-94
2021/11/08 03:25:01;;;;;;;13.73;8.55;;;;;;;9.30;100.00;98480.38;5109170;28;20350;-94
2021/11/08 03:30:19;;;;;;;14.48;9.02;;;;;;;9.29;100.00;98489.28;5113604;27;20128;-93
2021/11/08 03:32:46;;;;;;;14.48;9.25;;;;;;;9.20;100.00;98479.78;5113554;28;20036;-92
2021/11/08 03:35:14;;;;;;;19.08;9.48;;;;;;;9.23;100.00;98485.00;5113082;28;20444;-95
2021/11/08 03:37:43;;;;;;;14.50;8.23;;;;;;;9.25;100.00;98487.59;5113528;28;20057;-94
2021/11/08 03:40:12;;;;;;;14.60;8.55;;;;;;;9.31;100.00;98497.19;5111436;28;20516;-96
2021/11/08 03:42:39;;;;;;;;;;;;;;;9.31;100.00;98510.47;5113346;28;20097;-95
2021/11/08 03:45:06;;;;;;;14.73;7.47;;;;;;;9.21;100.00;98507.16;5112908;28;19920;-93
2021/11/08 03:47:36;;;;;;;15.02;7.47;;;;;;;9.18;100.00;98500.16;5107401;28;20040;-94
2021/11/08 03:50:02;;;;;;;12.73;7.23;;;;;;;9.00;100.00;98485.59;5114533;28;20039;-95
2021/11/08 03:52:29;;;;;;;13.90;7.13;;;;;;;8.94;100.00;98471.63;5113940;28;20299;-95
2021/11/08 03:54:56;;;;;;;12.75;6.78;;;;;;;9.03;100.00;98482.84;5113653;28;20044;-94
2021/11/08 03:57:22;;;;;;;12.00;7.43;;;;;;;9.00;100.00;98467.03;5108138;28;20074;-95
2021/11/08 03:59:47;;;;;;;13.30;7.45;;;;;;;9.08;100.00;98480.09;5113419;28;20036;-95
2021/11/08 04:02:13;;;;;;;14.40;7.55;;;;;;;9.19;100.00;98509.00;5113107;28;20040;-94
2021/11/08 04:04:41;;;;;;;14.43;7.25;;;;;;;9.00;100.00;98476.75;5113310;28;20028;-93
2021/11/08 04:07:07;;;;;;;12.77;6.70;;;;;;;9.06;100.00;98497.81;5113297;28;20539;-96
2021/11/08 04:09:34;;;;;;;11.20;7.28;;;;;;;8.87;100.00;98483.28;5112761;28;20123;-94
2021/11/08 04:12:00;;;;;;;10.88;7.20;;;;;;;8.91;100.00;98493.75;5112660;28;20044;-94
2021/11/08 04:14:27;;;;;;;16.02;7.22;;;;;;;8.75;100.00;98472.06;5113241;28;20066;-94
2021/11/08 04:16:53;;;;;;;10.82;6.40;;;;;;;8.81;100.00;98501.09;5112421;28;20511;-94
2021/11/08 04:19:19;;;;;;;12.43;6.80;;;;;;;8.71;100.00;98502.22;5113543;28;20043;-94
2021/11/08 04:21:47;;;;;;;13.70;7.93;;;;;;;8.71;100.00;98473.03;5114148;28;20097;-93
2021/11/08 04:24:14;;;;;;;13.82;7.88;;;;;;;8.88;100.00;98479.72;5113706;28;20048;-95
2021/11/08 04:26:40;;;;;;;15.77;7.25;;;;;;;8.84;100.00;98469.19;5113396;28;20104;-96
2021/11/08 04:29:07;;;;;;;14.43;7.50;;;;;;;9.01;100.00;98474.06;5113713;28;20083;-93
2021/11/08 04:31:38;;;;;;;14.80;6.82;;;;;;;9.04;100.00;98463.41;5112644;28;20397;-95
2021/11/08 04:52:23;;;;;;;10.88;7.13;;;;;;;8.89;100.00;98465.53;5092804;27;20732;-94
2021/11/08 05:32:27;;;;;;;14.40;7.55;;;;;;;8.71;100.00;98486.31;5160229;27;19915;-96
2021/11/08 05:34:54;;;;;;;15.25;7.50;;;;;;;8.63;100.00;98456.44;5137253;27;20044;-94
2021/11/08 05:37:21;;;;;;;13.48;7.93;;;;;;;8.81;100.00;98476.38;5150480;27;20038;-95
2021/11/08 05:42:49;;;;;;;18.65;7.78;;;;;;;8.88;100.00;98491.19;5143029;27;20373;-95
2021/11/08 05:45:16;;;;;;;13.45;7.55;;;;;;;8.78;100.00;98473.75;5108308;28;20044;-95
2021/11/08 05:47:43;;;;;;;17.58;6.85;;;;;;;8.95;100.00;98497.22;5103950;28;20040;-95
2021/11/08 05:50:11;;;;;;;13.70;7.95;;;;;;;8.93;100.00;98501.69;5094589;28;20042;-95
2021/11/08 05:52:38;;;;;;;13.90;8.10;;;;;;;8.89;100.00;98503.56;5109969;28;20032;-96
2021/11/08 05:55:08;;;;;;;15.77;7.07;;;;;;;8.86;100.00;98508.94;5101066;28;20111;-94
2021/11/08 06:59:40;;;;;;;18.50;7.30;;;;;;;9.58;100.00;98525.63;5596186;22;16752019;-93
2021/11/08 07:02:06;;;;;;;13.27;7.57;;;;;;;9.59;100.00;98500.84;6322995;22;20038;-94
2021/11/08 07:04:32;;;;;;;14.50;6.95;;;;;;;9.80;100.00;98520.63;6321485;22;20768;-93
2021/11/08 07:06:59;;;;;;;13.82;7.10;;;;;;;10.08;100.00;98518.06;6319240;22;20015;-94
2021/11/08 07:09:24;;;;;;;12.25;6.80;;;;;;;10.18;100.00;98512.47;6322559;22;20015;-93
2021/11/08 07:11:51;;;;;;;14.57;7.07;;;;;;;10.30;99.42;98501.53;6321277;22;19999;-93
2021/11/08 07:14:17;;;;;;;14.80;6.70;;;;;;;10.51;98.12;98502.63;6321198;22;20019;-95
2021/11/08 07:16:45;;;;;;;14.57;6.13;;;;;;;10.78;97.65;98508.88;6320727;22;20019;-94
2021/11/08 07:19:12;;;;;;;12.80;6.60;;;;;;;11.14;96.01;98513.91;6322019;22;20011;-94
2021/11/08 07:21:38;;;;;;;12.02;6.13;;;;;;;11.15;95.92;98486.38;6321785;22;20441;-94
2021/11/08 07:24:04;;;;;;;11.88;5.70;;;;;;;11.43;95.03;98498.75;6320481;22;20011;-94
2021/11/08 07:26:30;;;;;;;15.13;5.85;;;;;;;11.72;94.87;98524.34;6321346;22;20048;-94
2021/11/08 07:28:56;;;;;;;16.75;6.10;;;;;;;11.87;93.65;98525.59;6321086;22;20023;-94
2021/11/08 07:31:22;;;;;;;11.35;5.45;;;;;;;11.91;92.16;98508.59;6320373;22;20398;-94
2021/11/08 07:33:50;;;;;;;14.38;6.68;;;;;;;12.11;92.08;98527.38;6321590;22;20019;-94
2021/11/08 07:36:16;;;;;;;13.27;6.28;;;;;;;12.16;88.64;98513.00;6321243;22;20018;-93
2021/11/08 07:38:41;;;;;;;9.05;5.53;;;;;;;12.44;86.75;98513.69;6322020;22;20023;-96
2021/11/08 07:41:10;;;;;;;10.75;5.93;;;;;;;12.60;85.26;98526.41;6323032;22;20019;-93
2021/11/08 07:43:36;;;;;;;10.27;5.65;;;;;;;12.73;84.78;98509.03;6325259;22;20019;-93
2021/11/08 07:46:02;;;;;;;12.25;5.38;;;;;;;12.74;84.56;98500.06;6323384;22;19999;-94
2021/11/08 07:48:28;;;;;;;10.75;6.00;;;;;;;13.06;84.04;98537.94;6326032;22;20066;-93
2021/11/08 07:50:57;;;;;;;14.20;8.13;;;;;;;12.99;85.16;98531.09;6326642;22;20152;-92
2021/11/08 07:53:23;;;;;;;18.45;12.38;;;;;;;12.76;84.39;98540.91;6325435;22;20015;-94
2021/11/08 07:55:50;;;;;;;18.20;9.23;;;;;;;12.51;84.80;98509.88;6326280;22;20022;-94
2021/11/08 07:58:16;;;;;;;16.63;10.05;;;;;;;12.63;84.48;98529.84;6325219;22;20054;-95
2021/11/08 08:00:45;;;;;;;15.43;8.50;;;;;;;12.90;85.42;98533.22;6318800;22;20011;-94
2021/11/08 08:03:11;;;;;;;13.68;7.28;;;;;;;13.38;84.45;98542.00;6319047;22;20090;-94
2021/11/08 08:05:37;;;;;;;10.13;6.05;;;;;;;13.45;81.42;98516.75;6316967;22;20046;-94
2021/11/08 08:08:05;;;;;;;14.50;6.68;;;;;;;13.46;81.78;98517.59;6317463;22;20017;-94
2021/11/08 08:10:31;;;;;;;14.23;6.70;;;;;;;13.55;81.66;98511.84;6317147;22;20022;-95
2021/11/08 08:12:57;;;;;;;14.00;6.05;;;;;;;13.79;79.70;98495.69;6317469;22;20019;-94
2021/11/08 08:15:24;;;;;;;13.35;6.78;;;;;;;14.16;79.84;98510.94;6317534;22;20387;-94
2021/11/08 08:17:50;;;;;;;13.65;6.70;;;;;;;14.56;78.51;98512.66;6317649;22;20094;-94
2021/11/08 08:20:19;;;;;;;15.02;6.32;;;;;;;14.51;77.47;98497.75;6317810;22;20074;-96
2021/11/08 08:22:45;;;;;;;11.70;5.90;;;;;;;14.38;76.81;98508.16;6317107;22;20019;-93
2021/11/08 08:25:13;;;;;;;15.20;6.32;;;;;;;14.11;78.34;98521.84;6314397;22;20015;-95
2021/11/08 08:27:39;;;;;;;13.80;6.00;;;;;;;13.77;80.95;98526.03;6315578;22;20017;-94
2021/11/08 08:30:08;;;;;;;17.05;7.22;;;;;;;14.00;78.77;98521.47;6317443;22;20531;-94
2021/11/08 08:32:34;;;;;;;18.85;8.90;;;;;;;13.94;78.98;98505.69;6317013;22;20019;-92
2021/11/08 08:35:00;;;;;;;18.13;9.32;;;;;;;13.99;79.67;98527.75;6317568;22;20044;-94
2021/11/08 08:37:30;;;;;;;12.63;7.00;;;;;;;13.71;80.52;98510.28;6316511;22;20015;-94
2021/11/08 08:39:56;;;;;;;16.58;6.40;;;;;;;13.71;80.93;98528.13;6316767;22;20023;-94
2021/11/08 08:42:25;;;;;;;33.13;17.65;;;;;;;13.82;80.88;98533.00;6316268;22;20023;-94
2021/11/08 08:44:53;;;;;;;19.80;10.57;;;;;;;14.25;79.93;98534.59;6318644;22;20019;-95
2021/11/08 08:47:20;;;;;;;20.40;8.55;;;;;;;14.82;76.87;98544.50;6313708;22;20051;-92
2021/11/08 08:49:46;;;;;;;16.55;9.10;;;;;;;15.00;75.18;98535.56;6314388;22;20011;-94
2021/11/08 08:52:13;;;;;;;18.48;7.68;;;;;;;15.03;73.81;98518.47;6315142;22;20015;-94
2021/11/08 08:54:40;;;;;;;16.67;7.22;;;;;;;14.55;77.59;98518.97;6314317;22;20071;-94
2021/11/08 08:57:06;;;;;;;16.20;7.18;;;;;;;14.37;77.38;98517.97;6314895;22;20025;-95
2021/11/08 08:59:34;;;;;;;12.30;7.00;;;;;;;14.66;76.70;98525.59;6312811;22;20030;-95
2021/11/08 09:02:00;;;;;;;17.75;7.13;;;;;;;14.45;76.62;98514.94;6280102;22;20020;-93
2021/11/08 09:04:27;;;;;;;17.27;8.50;;;;;;;14.22;78.87;98528.50;6280628;22;20050;-95
2021/11/08 09:06:53;;;;;;;15.40;6.95;;;;;;;13.74;79.98;98515.47;6280527;22;20042;-94
2021/11/08 09:09:19;;;;;;;16.42;7.40;;;;;;;13.73;81.05;98532.44;6280054;22;20058;-95
2021/11/08 09:11:45;;;;;;;14.18;6.70;;;;;;;13.60;82.38;98525.91;6278987;22;20023;-93
2021/11/08 09:14:11;;;;;;;14.73;6.40;;;;;;;13.66;81.77;98530.09;6279308;22;20020;-94
2021/11/08 09:16:38;;;;;;;12.48;6.55;;;;;;;13.51;82.18;98523.59;6279052;22;20027;-94
2021/11/08 09:19:05;;;;;;;11.30;6.35;;;;;;;13.61;83.11;98541.00;6280770;22;20026;-94
2021/11/08 09:21:33;;;;;;;16.70;6.93;;;;;;;13.61;82.49;98545.47;6281426;22;20016;-94
2021/11/08 09:24:00;;;;;;;13.50;7.30;;;;;;;13.56;82.06;98533.19;6283035;22;20468;-95
2021/11/08 09:26:29;;;;;;;18.92;7.95;;;;;;;13.70;81.64;98537.91;6282598;22;20027;-95
2021/11/08 09:28:55;;;;;;;20.75;8.45;;;;;;;13.77;81.41;98525.19;6283273;22;20016;-94
2021/11/08 09:31:22;;;;;;;14.85;6.35;;;;;;;14.02;80.92;98562.38;6280349;22;20513;-95
2021/11/08 09:33:52;;;;;;;12.45;6.50;;;;;;;13.98;81.19;98556.28;6280534;22;20015;-95
2021/11/08 09:36:18;;;;;;;13.30;6.50;;;;;;;13.91;80.75;98544.13;6281681;22;20047;-96
2021/11/08 09:41:55;;;;;;;17.08;7.00;;;;;;;13.73;82.33;98544.94;5116491;27;20878;-93
2021/11/08 09:44:21;;;;;;;14.30;6.38;;;;;;;13.98;82.31;98555.41;5121248;28;20070;-94
2021/11/08 09:46:51;;;;;;;13.50;6.97;;;;;;;14.17;80.04;98545.63;5114299;28;20043;-94
2021/11/08 09:49:20;;;;;;;16.40;7.13;;;;;;;14.30;78.85;98534.38;5115723;28;20085;-94
2021/11/08 09:51:48;;;;;;;14.57;7.05;;;;;;;14.43;79.06;98543.56;5115682;28;20089;-94
2021/11/08 09:54:15;;;;;;;13.48;6.47;;;;;;;14.25;79.58;98531.03;5117249;28;20064;-93
2021/11/08 09:56:43;;;;;;;16.35;6.78;;;;;;;14.02;80.28;98530.28;5118111;28;20410;-94
2021/11/08 09:59:12;;;;;;;14.98;6.70;;;;;;;14.15;81.05;98550.19;5116804;28;20040;-94
2021/11/08 10:01:40;;;;;;;16.30;6.82;;;;;;;14.22;80.39;98544.56;5115235;28;20046;-96
2021/11/08 10:04:08;;;;;;;17.58;6.88;;;;;;;14.35;80.76;98551.06;5115468;28;20123;-94
2021/11/08 10:06:37;;;;;;;11.73;7.00;;;;;;;14.35;79.42;98519.84;5115691;28;20046;-93
2021/11/08 10:09:04;;;;;;;15.50;6.70;;;;;;;14.17;79.76;98515.34;5115638;28;20123;-94
2021/11/08 10:11:30;;;;;;;15.68;6.80;;;;;;;14.16;80.40;98519.84;5115756;28;20370;-94
2021/11/08 10:13:57;;;;;;;15.82;6.93;;;;;;;14.36;80.03;98526.94;5116274;28;20040;-92
2021/11/08 10:16:30;;;;;;;12.75;6.40;;;;;;;14.57;79.93;98522.44;5115443;28;20047;-93
2021/11/08 10:18:59;;;;;;;14.63;6.47;;;;;;;14.81;78.45;98519.50;5117106;28;20036;-94
2021/11/08 10:21:27;;;;;;;25.80;13.50;;;;;;;15.12;77.63;98521.56;5117836;28;20077;-94
2021/11/08 10:23:57;;;;;;;22.70;12.30;;;;;;;15.41;77.09;98543.34;5112321;28;20128;-92
2021/11/08 10:26:26;;;;;;;17.40;7.32;;;;;;;15.54;76.49;98547.13;5115888;28;20509;-94
2021/11/08 10:28:53;;;;;;;24.48;12.00;;;;;;;15.58;76.20;98538.00;5117879;28;20077;-92
2021/11/08 10:31:28;;;;;;;17.48;8.10;;;;;;;15.48;76.43;98507.25;5116288;28;20032;-93
2021/11/08 10:33:57;;;;;;;11.98;6.65;;;;;;;15.11;77.27;98503.75;5113969;28;20118;-93
2021/11/08 10:36:23;;;;;;;14.70;6.75;;;;;;;15.11;78.02;98514.47;5114823;28;20040;-94
2021/11/08 10:38:52;;;;;;;10.05;6.32;;;;;;;14.86;79.23;98514.81;5116549;28;20043;-93
2021/11/08 10:41:21;;;;;;;13.40;6.72;;;;;;;15.10;78.16;98511.88;5115091;28;20066;-92
2021/11/08 10:43:49;;;;;;;18.88;7.28;;;;;;;15.41;78.89;98520.09;5116751;28;20402;-94
2021/11/08 10:46:17;;;;;;;17.38;8.00;;;;;;;15.68;77.84;98514.28;5113879;28;20405;-93
2021/11/08 10:48:49;;;;;;;15.15;8.05;;;;;;;16.07;74.74;98518.53;5113446;28;20169;-94
2021/11/08 10:51:18;;;;;;;15.05;7.75;;;;;;;16.14;74.50;98503.81;5109947;28;20036;-95
2021/11/08 10:53:48;;;;;;;16.85;8.10;;;;;;;15.92;74.09;98497.88;5097921;28;20071;-95
2021/11/08 10:56:20;;;;;;;19.27;7.80;;;;;;;15.49;76.25;98465.25;5099768;28;20127;-94
2021/11/08 10:58:47;;;;;;;17.33;7.90;;;;;;;15.51;76.82;98476.78;5101520;28;20089;-93
2021/11/08 11:01:22;;;;;;;20.95;9.02;;;;;;;15.49;75.87;98462.59;5099457;28;20040;-95
2021/11/08 11:03:51;;;;;;;17.50;8.57;;;;;;;15.31;77.27;98450.97;5098784;28;20020;-94
2021/11/08 11:06:18;;;;;;;16.60;8.32;;;;;;;15.50;77.29;98465.16;5099051;28;20405;-94
2021/11/08 11:08:50;;;;;;;18.63;9.63;;;;;;;15.72;76.48;98464.97;5099194;28;20058;-93
2021/11/08 11:11:18;;;;;;;19.58;9.10;;;;;;;15.77;76.94;98473.63;5098098;28;20044;-94
2021/11/08 11:13:49;;;;;;;20.45;10.68;;;;;;;15.91;77.13;98480.91;5099816;28;20115;-92
2021/11/08 11:16:15;;;;;;;21.00;9.27;;;;;;;15.82;77.66;98482.28;5099094;28;20044;-91
2021/11/08 11:18:42;;;;;;;17.38;8.50;;;;;;;15.73;76.37;98444.38;5101448;28;20455;-95
2021/11/08 11:21:17;;;;;;;17.17;8.30;;;;;;;15.87;76.90;98462.38;5104218;28;20048;-93
2021/11/08 11:23:45;;;;;;;16.65;8.02;;;;;;;15.96;74.68;98472.63;5103634;28;20048;-95
2021/11/08 11:26:13;;;;;;;20.13;9.68;;;;;;;15.98;75.38;98476.97;5104309;28;20066;-95
2021/11/08 11:28:41;;;;;;;16.25;8.43;;;;;;;15.88;75.09;98451.59;5104369;28;20102;-96
2021/11/08 11:31:12;;;;;;;15.30;7.60;;;;;;;15.67;76.40;98441.97;5104974;28;20040;-96
2021/11/08 11:33:39;;;;;;;17.08;8.60;;;;;;;15.72;76.34;98443.50;5105064;28;20051;-95
2021/11/08 11:36:09;;;;;;;14.82;7.63;;;;;;;15.89;76.40;98449.78;5099330;28;20079;-96
2021/11/08 11:38:40;;;;;;;12.90;7.10;;;;;;;15.97;74.25;98426.09;5101863;28;20382;-94
2021/11/08 11:41:12;;;;;;;15.13;8.15;;;;;;;16.23;73.78;98444.28;5101581;28;20044;-95
2021/11/08 11:43:41;;;;;;;13.68;7.63;;;;;;;16.10;74.66;98427.16;5103105;28;20040;-93
2021/11/08 11:46:15;;;;;;;14.23;8.70;;;;;;;15.76;75.32;98428.97;5106022;28;20076;-96
2021/11/08 11:48:40;;;;;;;17.08;9.48;;;;;;;15.83;75.69;98445.63;5102216;28;20072;-94
2021/11/08 11:51:10;;;;;;;18.75;8.15;;;;;;;15.89;75.31;98441.72;5101525;28;20047;-94
2021/11/08 11:53:38;;;;;;;12.88;7.25;;;;;;;15.74;74.51;98433.56;5101241;28;20045;-95
2021/11/08 11:56:05;;;;;;;15.18;7.43;;;;;;;15.60;74.61;98428.91;5101767;28;20536;-94
2021/11/08 11:58:32;;;;;;;14.05;6.93;;;;;;;15.66;75.25;98432.19;5100225;28;20040;-94
2021/11/08 12:00:59;;;;;;;18.27;7.10;;;;;;;15.57;75.18;98422.81;5100953;28;20044;-95
2021/11/08 12:03:28;;;;;;;14.60;8.20;;;;;;;15.58;76.14;98437.97;5098677;28;20044;-94
2021/11/08 12:05:55;;;;;;;13.23;6.80;;;;;;;15.57;75.52;98418.34;5099665;28;20142;-95
2021/11/08 12:11:32;;;;;;;14.80;7.18;;;;;;;15.65;76.38;98441.19;5129646;27;20132;-94
2021/11/08 12:14:01;;;;;;;16.02;5.97;;;;;;;15.49;76.99;98414.34;5106224;28;20097;-92
2021/11/08 12:16:28;;;;;;;13.25;6.45;;;;;;;15.46;77.31;98414.50;5105032;28;20054;-95
2021/11/08 12:18:59;;;;;;;13.25;6.25;;;;;;;15.27;76.97;98409.25;5104249;28;20070;-94
2021/11/08 12:21:28;;;;;;;10.70;5.60;;;;;;;15.24;77.68;98409.38;5102307;28;20040;-95
2021/11/08 12:23:56;;;;;;;9.45;5.30;;;;;;;15.34;76.96;98426.72;5103444;28;20042;-95
2021/11/08 12:26:25;;;;;;;8.68;4.30;;;;;;;15.40;77.58;98426.41;5098749;28;20043;-94
2021/11/08 12:29:05;;;;;;;6.95;3.70;;;;;;;15.54;76.89;98421.19;5107272;28;20068;-91
2021/11/08 12:31:33;;;;;;;10.32;5.38;;;;;;;15.39;76.24;98387.16;5102397;28;20052;-95
2021/11/08 12:34:02;;;;;;;11.23;3.63;;;;;;;15.46;75.56;98399.31;5117078;28;20066;-95
2021/11/08 12:36:28;;;;;;;16.95;4.30;;;;;;;15.39;75.44;98387.16;5122114;28;20044;-95
2021/11/08 12:38:57;;;;;;;6.93;3.75;;;;;;;15.33;75.73;98379.44;5115862;28;20099;-96
2021/11/08 12:41:30;;;;;;;6.20;3.38;;;;;;;15.31;75.63;98376.84;5118730;28;20047;-96
2021/11/08 12:44:04;;;;;;;6.68;2.92;;;;;;;15.40;75.12;98387.09;5107553;28;20046;-96
2021/11/08 12:46:35;;;;;;;6.57;3.47;;;;;;;15.44;75.90;98400.31;5107045;28;20044;-96
2021/11/08 12:49:08;;;;;;;7.28;3.40;;;;;;;15.28;76.16;98376.16;5104250;28;20072;-95
2021/11/08 12:51:36;;;;;;;4.32;2.20;;;;;;;15.29;73.28;98381.44;5100998;28;20044;-94
2021/11/08 12:54:05;;;;;;;5.30;2.60;;;;;;;15.36;73.80;98390.88;5101390;28;20066;-94
2021/11/08 12:56:32;;;;;;;;;;;;;;;15.45;73.45;98415.44;5105347;28;20041;-94
2021/11/08 12:59:00;;;;;;;5.20;2.95;;;;;;;15.41;74.06;98418.28;5102754;28;19969;-94
2021/11/08 13:01:38;;;;;;;5.15;2.85;;;;;;;15.19;73.84;98390.88;5115520;28;20046;-94
2021/11/08 13:04:07;;;;;;;4.05;2.78;;;;;;;15.20;73.75;98393.50;5106664;28;20561;-94
2021/11/08 13:06:36;;;;;;;7.32;4.05;;;;;;;15.08;75.16;98382.53;5098328;28;20039;-91
2021/11/08 13:09:08;;;;;;;5.35;2.50;;;;;;;15.04;74.58;98381.81;5101553;28;20054;-94
2021/11/08 13:11:40;;;;;;;2.15;1.50;;;;;;;15.07;73.89;98384.38;5096976;28;20040;-96
2021/11/08 13:14:08;;;;;;;3.60;1.70;;;;;;;15.07;74.45;98392.41;5103913;28;20052;-95
2021/11/08 13:16:38;;;;;;;3.73;2.00;;;;;;;14.94;74.71;98383.22;5102355;28;20537;-94
2021/11/08 13:19:06;;;;;;;3.53;1.88;;;;;;;15.04;74.59;98383.66;5104515;28;20306;-96
2021/11/08 13:21:33;;;;;;;3.90;2.10;;;;;;;14.90;74.87;98373.66;5106883;28;20083;-94
2021/11/08 13:23:59;;;;;;;3.53;2.10;;;;;;;14.94;74.85;98386.81;5090968;28;20119;-94
2021/11/08 13:26:27;;;;;;;3.38;2.20;;;;;;;14.90;75.68;98390.56;5095865;28;20062;-95
2021/11/08 13:28:54;;;;;;;6.13;3.10;;;;;;;14.62;76.39;98387.56;5088808;28;20040;-92
2021/11/08 13:31:24;;;;;;;2.70;1.80;;;;;;;14.65;75.41;98364.16;5095122;28;20044;-93
2021/11/08 13:33:53;;;;;;;3.92;2.20;;;;;;;14.64;77.27;98369.59;5091818;28;20031;-96
2021/11/08 13:36:19;;;;;;;;;;;;;;;14.79;76.10;98388.44;5085671;28;20072;-95
2021/11/08 13:38:47;;;;;;;3.75;2.10;;;;;;;14.78;75.81;98381.34;5099636;28;20411;-95
2021/11/08 13:41:17;;;;;;;3.72;2.25;;;;;;;14.75;76.24;98359.22;5083026;28;20059;-94
2021/11/08 13:43:46;;;;;;;4.15;1.85;;;;;;;14.65;75.56;98365.97;5092849;28;20067;-95
2021/11/08 13:46:14;;;;;;;2.08;1.60;;;;;;;14.74;75.67;98369.03;5092222;28;20040;-93
2021/11/08 13:48:44;;;;;;;2.80;1.80;;;;;;;14.78;75.85;98397.41;5081649;28;20032;-94
2021/11/08 13:51:25;;;;;;;3.38;1.60;;;;;;;14.63;75.31;98362.50;5091363;28;20072;-94
2021/11/08 13:53:54;;;;;;;2.80;1.63;;;;;;;14.67;74.90;98372.97;5084877;28;20370;-96
2021/11/08 13:56:21;;;;;;;2.70;1.70;;;;;;;14.62;75.77;98369.69;5088587;28;20036;-93